createdAt,value
2022-08-26T00:01:42.206Z,100202.47
2022-08-26T00:07:05.321Z,100212.59
2022-08-26T00:09:33.273Z,100204.66
2022-08-26T00:12:06.213Z,100212.41
2022-08-26T00:14:33.229Z,100213.94
2022-08-26T00:16:59.821Z,100211.44
2022-08-26T00:19:26.340Z,100210.63
2022-08-26T00:21:52.737Z,100202.28
2022-08-26T00:24:20.772Z,100199.97
2022-08-26T00:26:48.728Z,100199.34
2022-08-26T00:29:15.852Z,100203.38
2022-08-26T00:31:42.813Z,100199.00
2022-08-26T00:34:12.312Z,100182.88
2022-08-26T00:36:39.636Z,100190.84
2022-08-26T00:39:07.417Z,100194.59
2022-08-26T00:41:34.919Z,100189.31
2022-08-26T00:44:01.421Z,100196.69
2022-08-26T00:46:35.097Z,100184.75
2022-08-26T00:49:11.912Z,100197.78
2022-08-26T00:51:47.290Z,100181.66
2022-08-26T00:54:16.347Z,100194.66
2022-08-26T00:56:52.765Z,100194.44
2022-08-26T00:59:20.259Z,100180.63
2022-08-26T01:01:46.990Z,100190.50
2022-08-26T01:04:18.312Z,100182.53
2022-08-26T01:06:45.259Z,100203.09
2022-08-26T01:09:12.135Z,100187.38
2022-08-26T01:11:38.994Z,100196.81
2022-08-26T01:14:07.380Z,100187.31
2022-08-26T01:16:36.020Z,100197.19
2022-08-26T01:19:15.730Z,100188.81
2022-08-26T01:21:53.655Z,100189.44
2022-08-26T01:24:20.243Z,100190.28
2022-08-26T01:26:47.640Z,100193.22
2022-08-26T01:29:19.056Z,100186.53
2022-08-26T01:31:55.915Z,100201.22
2022-08-26T01:34:35.948Z,100201.47
2022-08-26T01:37:13.703Z,100204.03
2022-08-26T01:39:43.822Z,100197.31
2022-08-26T01:42:14.471Z,100197.31
2022-08-26T01:45:06.302Z,100202.56
2022-08-26T01:47:35.296Z,100204.03
2022-08-26T01:50:07.796Z,100208.03
2022-08-26T01:52:38.086Z,100206.59
2022-08-26T01:55:05.392Z,100211.41
2022-08-26T01:57:34.422Z,100204.03
2022-08-26T02:00:06.314Z,100210.97
2022-08-26T02:02:32.822Z,100207.59
2022-08-26T02:05:05.812Z,100205.28
2022-08-26T02:07:33.220Z,100206.53
2022-08-26T02:09:59.839Z,100209.69
2022-08-26T02:12:27.087Z,100206.53
2022-08-26T02:14:58.216Z,100205.94
2022-08-26T02:17:31.922Z,100210.19
2022-08-26T02:19:58.572Z,100209.31
2022-08-26T02:22:25.102Z,100206.81
2022-08-26T02:25:00.684Z,100208.47
2022-08-26T02:27:32.931Z,100208.94
2022-08-26T02:30:14.686Z,100210.19
2022-08-26T02:32:44.349Z,100214.56
2022-08-26T02:35:13.791Z,100214.63
2022-08-26T02:37:46.676Z,100211.91
2022-08-26T02:40:18.267Z,100213.13
2022-08-26T02:42:44.803Z,100212.75
2022-08-26T02:45:11.175Z,100213.13
2022-08-26T02:47:37.598Z,100214.41
2022-08-26T02:50:05.039Z,100205.19
2022-08-26T02:52:31.626Z,100208.94
2022-08-26T02:54:58.938Z,100208.56
2022-08-26T02:57:25.984Z,100205.63
2022-08-26T02:59:52.579Z,100207.72
2022-08-26T03:02:19.097Z,100207.91
2022-08-26T03:04:57.490Z,100208.13
2022-08-26T03:07:27.219Z,100210.66
2022-08-26T03:09:53.659Z,100208.97
2022-08-26T03:12:20.304Z,100202.28
2022-08-26T03:14:47.558Z,100198.72
2022-08-26T03:17:13.961Z,100201.44
2022-08-26T03:19:40.319Z,100203.13
2022-08-26T03:22:07.810Z,100198.97
2022-08-26T03:24:34.864Z,100209.66
2022-08-26T03:27:01.906Z,100205.00
2022-08-26T03:29:52.926Z,100201.03
2022-08-26T03:32:20.602Z,100201.00
2022-08-26T03:34:47.006Z,100199.56
2022-08-26T03:37:13.430Z,100200.16
2022-08-26T03:39:39.811Z,100194.50
2022-08-26T03:42:07.216Z,100200.59
2022-08-26T03:44:34.025Z,100203.09
2022-08-26T03:47:00.642Z,100200.16
2022-08-26T03:49:28.964Z,100195.34
2022-08-26T03:51:55.473Z,100204.34
2022-08-26T03:54:21.802Z,100199.09
2022-08-26T03:56:48.205Z,100194.72
2022-08-26T03:59:14.571Z,100198.28
2022-08-26T04:01:41.170Z,100195.34
2022-08-26T04:04:07.696Z,100196.38
2022-08-26T04:06:38.157Z,100202.69
2022-08-26T04:09:10.565Z,100197.44
2022-08-26T04:11:39.475Z,100203.97
2022-08-26T04:14:09.545Z,100199.09
2022-08-26T04:16:36.619Z,100200.19
2022-08-26T04:19:03.431Z,100202.25
2022-08-26T04:21:29.893Z,100200.19
2022-08-26T04:23:56.309Z,100195.34
2022-08-26T04:26:25.466Z,100196.84
2022-08-26T04:28:54.594Z,100199.16
2022-08-26T04:31:21.151Z,100201.66
2022-08-26T04:33:51.833Z,100214.88
2022-08-26T04:36:20.166Z,100209.22
2022-08-26T04:38:47.432Z,100204.59
2022-08-26T04:41:14.847Z,100210.50
2022-08-26T04:43:44.520Z,100209.84
2022-08-26T04:46:12.870Z,100210.66
2022-08-26T04:48:40.898Z,100213.59
2022-08-26T04:51:07.823Z,100215.28
2022-08-26T04:53:34.731Z,100204.16
2022-08-26T04:56:01.214Z,100211.50
2022-08-26T04:58:30.890Z,100217.16
2022-08-26T05:00:58.430Z,100207.31
2022-08-26T05:03:30.295Z,100214.88
2022-08-26T05:05:58.164Z,100212.59
2022-08-26T05:08:25.145Z,100212.34
2022-08-26T05:10:57.005Z,100217.16
2022-08-26T05:13:26.406Z,100219.06
2022-08-26T05:15:53.596Z,100213.81
2022-08-26T05:18:22.923Z,100222.00
2022-08-26T05:20:54.751Z,100220.34
2022-08-26T05:23:22.866Z,100217.00
2022-08-26T05:25:53.599Z,100225.56
2022-08-26T05:28:22.436Z,100223.25
2022-08-26T05:30:50.020Z,100225.97
2022-08-26T05:33:18.893Z,100224.09
2022-08-26T05:35:46.815Z,100224.94
2022-08-26T05:38:16.495Z,100237.06
2022-08-26T05:40:46.065Z,100231.00
2022-08-26T05:43:13.352Z,100235.84
2022-08-26T05:45:46.295Z,100233.28
2022-08-26T05:48:14.424Z,100239.19
2022-08-26T05:50:44.702Z,100238.34
2022-08-26T05:53:13.115Z,100238.16
2022-08-26T05:55:45.579Z,100246.53
2022-08-26T05:58:12.359Z,100253.03
2022-08-26T06:00:39.720Z,100250.72
2022-08-26T06:03:10.999Z,100242.53
2022-08-26T06:05:41.828Z,100252.16
2022-08-26T06:08:11.300Z,100249.22
2022-08-26T06:10:52.491Z,100253.59
2022-08-26T06:13:24.062Z,100258.00
2022-08-26T06:15:51.492Z,100256.34
2022-08-26T06:18:23.980Z,100256.91
2022-08-26T06:20:57.021Z,100245.31
2022-08-26T06:23:45.154Z,100243.59
2022-08-26T06:26:12.480Z,100253.88
2022-08-26T06:28:38.928Z,100251.06
2022-08-26T06:31:05.983Z,100254.00
2022-08-26T06:33:32.556Z,100254.72
2022-08-26T06:36:00.971Z,100257.22
2022-08-26T06:38:28.440Z,100261.84
2022-08-26T06:40:54.928Z,100264.78
2022-08-26T06:43:24.283Z,100256.69
2022-08-26T06:45:51.295Z,100263.78
2022-08-26T06:48:21.429Z,100261.56
2022-08-26T06:50:47.877Z,100261.03
2022-08-26T06:53:16.934Z,100263.00
2022-08-26T06:55:46.036Z,100259.06
2022-08-26T06:58:14.104Z,100265.44
2022-08-26T07:00:41.623Z,100267.72
2022-08-26T07:03:13.886Z,100267.28
2022-08-26T07:05:40.859Z,100252.22
2022-08-26T07:08:07.425Z,100262.66
2022-08-26T07:10:35.532Z,100269.56
2022-08-26T07:13:02.528Z,100256.03
2022-08-26T07:15:31.483Z,100260.56
2022-08-26T07:17:58.000Z,100256.81
2022-08-26T07:20:24.376Z,100255.03
2022-08-26T07:22:51.371Z,100260.59
2022-08-26T07:25:17.928Z,100256.50
2022-08-26T07:27:46.156Z,100264.75
2022-08-26T07:30:20.337Z,100251.28
2022-08-26T07:32:46.727Z,100266.81
2022-08-26T07:35:13.997Z,100253.50
2022-08-26T07:37:40.534Z,100269.03
2022-08-26T07:40:08.308Z,100270.00
2022-08-26T07:42:35.858Z,100268.28
2022-08-26T07:45:02.177Z,100268.53
2022-08-26T07:47:28.531Z,100267.97
2022-08-26T07:49:57.274Z,100274.78
2022-08-26T07:52:27.367Z,100271.44
2022-08-26T07:54:58.046Z,100266.19
2022-08-26T07:57:26.178Z,100262.28
2022-08-26T07:59:55.126Z,100275.38
2022-08-26T08:02:22.659Z,100270.50
2022-08-26T08:04:49.059Z,100269.56
2022-08-26T08:07:15.525Z,100267.75
2022-08-26T08:09:41.947Z,100267.78
2022-08-26T08:12:09.351Z,100275.44
2022-08-26T08:14:40.696Z,100268.38
2022-08-26T08:17:08.551Z,100273.94
2022-08-26T08:19:39.045Z,100275.50
2022-08-26T08:22:06.885Z,100277.16
2022-08-26T08:24:44.515Z,100272.34
2022-08-26T08:27:10.865Z,100265.88
2022-08-26T08:29:37.870Z,100271.75
2022-08-26T08:32:04.925Z,100269.38
2022-08-26T08:34:31.588Z,100270.88
2022-08-26T08:36:58.421Z,100270.63
2022-08-26T08:39:25.475Z,100269.63
2022-08-26T08:42:13.881Z,100273.28
2022-08-26T08:44:44.425Z,100269.03
2022-08-26T08:47:37.645Z,100271.94
2022-08-26T08:50:17.411Z,100270.22
2022-08-26T08:52:50.605Z,100270.75
2022-08-26T08:55:18.204Z,100270.38
2022-08-26T08:58:02.185Z,100269.53
2022-08-26T09:00:41.657Z,100269.22
2022-08-26T09:03:32.155Z,100273.59
2022-08-26T09:06:01.849Z,100265.53
2022-08-26T09:08:35.025Z,100266.69
2022-08-26T09:11:03.440Z,100271.88
2022-08-26T09:13:31.740Z,100267.09
2022-08-26T09:16:10.307Z,100270.63
2022-08-26T09:19:24.533Z,100273.28
2022-08-26T09:22:02.154Z,100273.19
2022-08-26T09:24:39.625Z,100278.00
2022-08-26T09:27:08.731Z,100276.53
2022-08-26T09:29:45.325Z,100282.03
2022-08-26T09:32:23.949Z,100280.91
2022-08-26T09:35:00.922Z,100281.84
2022-08-26T09:37:43.521Z,100285.69
2022-08-26T09:40:34.945Z,100276.47
2022-08-26T09:43:07.729Z,100279.69
2022-08-26T09:45:35.726Z,100278.84
2022-08-26T09:48:03.426Z,100286.41
2022-08-26T09:50:54.767Z,100284.75
2022-08-26T09:53:28.580Z,100295.72
2022-08-26T09:56:23.174Z,100281.41
2022-08-26T09:58:49.954Z,100276.88
2022-08-26T10:01:30.089Z,100279.72
2022-08-26T10:04:09.679Z,100276.03
2022-08-26T10:06:42.105Z,100279.03
2022-08-26T10:09:13.726Z,100278.13
2022-08-26T10:11:49.458Z,100275.97
2022-08-26T10:14:20.228Z,100262.84
2022-08-26T10:17:00.330Z,100256.53
2022-08-26T10:19:56.229Z,100244.38
2022-08-26T10:22:30.276Z,100247.22
2022-08-26T10:25:02.745Z,100235.16
2022-08-26T10:27:49.705Z,100244.09
2022-08-26T10:30:22.779Z,100230.75
2022-08-26T10:32:54.599Z,100230.13
2022-08-26T10:35:21.456Z,100232.66
2022-08-26T10:37:53.420Z,100244.72
2022-08-26T10:40:23.527Z,100236.00
2022-08-26T10:42:58.391Z,100227.50
2022-08-26T10:45:31.370Z,100225.50
2022-08-26T10:48:06.777Z,100213.19
2022-08-26T10:50:37.422Z,100212.59
2022-08-26T10:53:17.712Z,100218.81
2022-08-26T10:55:53.304Z,100211.53
2022-08-26T10:59:00.283Z,100201.09
2022-08-26T11:01:43.184Z,100196.19
2022-08-26T11:04:35.081Z,100191.69
2022-08-26T11:07:31.935Z,100192.28
2022-08-26T11:10:05.015Z,100187.16
2022-08-26T11:12:34.454Z,100193.59
2022-08-26T11:15:07.112Z,100186.34
2022-08-26T11:17:44.412Z,100186.25
2022-08-26T11:20:23.739Z,100181.72
2022-08-26T11:22:53.274Z,100179.50
2022-08-26T11:25:26.455Z,100174.97
2022-08-26T11:27:59.686Z,100171.81
2022-08-26T11:30:36.935Z,100173.03
2022-08-26T11:33:03.451Z,100178.22
2022-08-26T11:35:37.453Z,100175.72
2022-08-26T11:38:20.172Z,100170.66
2022-08-26T11:40:56.320Z,100173.34
2022-08-26T11:43:30.274Z,100162.94
2022-08-26T11:46:05.209Z,100170.19
2022-08-26T11:48:34.726Z,100164.31
2022-08-26T11:51:07.668Z,100164.34
2022-08-26T11:53:40.928Z,100156.88
2022-08-26T11:56:31.595Z,100159.78
2022-08-26T11:59:00.496Z,100162.91
2022-08-26T12:01:32.176Z,100156.91
2022-08-26T12:04:00.167Z,100148.44
2022-08-26T12:06:43.443Z,100157.13
2022-08-26T12:09:21.923Z,100150.47
2022-08-26T12:11:48.342Z,100139.59
2022-08-26T12:14:19.798Z,100128.13
2022-08-26T12:16:46.452Z,100131.59
2022-08-26T12:19:33.001Z,100141.44
2022-08-26T12:22:23.423Z,100130.41
2022-08-26T12:25:00.563Z,100134.28
2022-08-26T12:27:28.785Z,100131.75
2022-08-26T12:30:12.253Z,100134.22
2022-08-26T12:32:50.981Z,100125.22
2022-08-26T12:35:26.055Z,100110.22
2022-08-26T12:37:54.485Z,100118.31
2022-08-26T12:40:41.531Z,100117.91
2022-08-26T12:43:08.927Z,100110.06
2022-08-26T12:45:43.062Z,100106.72
2022-08-26T12:48:26.793Z,100107.38
2022-08-26T12:50:53.306Z,100108.34
2022-08-26T12:53:31.716Z,100098.53
2022-08-26T12:56:04.531Z,100106.53
2022-08-26T12:58:31.528Z,100095.38
2022-08-26T13:01:22.461Z,100092.72
2022-08-26T13:03:49.862Z,100093.53
2022-08-26T13:06:29.644Z,100097.63
2022-08-26T13:09:01.088Z,100094.63
2022-08-26T13:11:41.088Z,100100.19
2022-08-26T13:14:10.772Z,100098.16
2022-08-26T13:16:38.603Z,100086.22
2022-08-26T13:19:10.349Z,100090.78
2022-08-26T13:21:52.825Z,100097.16
2022-08-26T13:24:39.989Z,100105.25
2022-08-26T13:27:09.346Z,100096.03
2022-08-26T13:29:36.187Z,100099.56
2022-08-26T13:32:04.624Z,100094.66
2022-08-26T13:34:32.319Z,100086.09
2022-08-26T13:36:59.117Z,100073.09
2022-08-26T13:39:26.416Z,100079.72
2022-08-26T13:41:53.092Z,100068.66
2022-08-26T13:44:19.759Z,100055.38
2022-08-26T13:46:46.363Z,100051.75
2022-08-26T13:49:12.820Z,100044.81
2022-08-26T13:51:39.487Z,100040.09
2022-08-26T13:54:06.156Z,100040.13
2022-08-26T13:56:34.009Z,100043.47
2022-08-26T13:59:01.275Z,100040.47
2022-08-26T14:01:29.482Z,100049.84
2022-08-26T14:03:56.030Z,100055.66
2022-08-26T14:06:22.500Z,100066.44
2022-08-26T14:08:49.350Z,100066.72
2022-08-26T14:11:16.165Z,100073.09
2022-08-26T14:13:42.934Z,100080.31
2022-08-26T14:16:16.079Z,100072.56
2022-08-26T14:18:45.289Z,100079.19
2022-08-26T14:21:15.059Z,100073.91
2022-08-26T14:23:41.810Z,100074.13
2022-08-26T14:26:10.801Z,100079.09
2022-08-26T14:28:41.656Z,100082.94
2022-08-26T14:31:08.646Z,100085.22
2022-08-26T14:33:38.109Z,100091.28
2022-08-26T14:36:25.366Z,100079.94
2022-08-26T14:38:52.489Z,100085.22
2022-08-26T14:41:19.800Z,100079.16
2022-08-26T14:43:57.724Z,100075.22
2022-08-26T14:46:26.707Z,100072.47
2022-08-26T14:48:53.106Z,100070.53
2022-08-26T14:51:23.872Z,100061.69
2022-08-26T14:54:09.703Z,100056.22
2022-08-26T14:56:42.855Z,100051.22
2022-08-26T14:59:10.236Z,100062.50
2022-08-26T15:01:36.884Z,100064.72
2022-08-26T15:04:03.592Z,100074.63
2022-08-26T15:06:31.754Z,100070.97
2022-08-26T15:08:58.878Z,100070.69
2022-08-26T15:11:25.442Z,100071.44
2022-08-26T15:13:52.858Z,100076.19
2022-08-26T15:16:19.553Z,100075.38
2022-08-26T15:18:46.001Z,100078.13
2022-08-26T15:21:12.505Z,100097.19
2022-08-26T15:23:39.396Z,100098.91
2022-08-26T15:26:11.177Z,100102.44
2022-08-26T15:28:38.448Z,100105.16
2022-08-26T15:31:06.500Z,100105.00
2022-08-26T15:33:34.091Z,100108.47
2022-08-26T15:36:02.099Z,100112.41
2022-08-26T15:38:30.964Z,100121.75
2022-08-26T15:41:02.920Z,100120.41
2022-08-26T15:43:30.509Z,100126.13
2022-08-26T15:45:58.990Z,100123.59
2022-08-26T15:48:26.313Z,100119.94
2022-08-26T15:50:54.720Z,100126.38
2022-08-26T15:53:22.424Z,100125.09
2022-08-26T15:55:50.270Z,100118.28
2022-08-26T15:58:17.216Z,100118.38
2022-08-26T16:00:44.980Z,100116.25
2022-08-26T16:03:12.103Z,100126.28
2022-08-26T16:05:41.168Z,100123.56
2022-08-26T16:08:08.216Z,100119.75
2022-08-26T16:10:37.402Z,100134.28
2022-08-26T16:13:05.011Z,100132.06
2022-08-26T16:15:33.483Z,100136.97
2022-08-26T16:18:02.155Z,100149.41
2022-08-26T16:20:30.209Z,100144.78
2022-08-26T16:22:56.970Z,100146.88
2022-08-26T16:25:23.811Z,100145.22
2022-08-26T16:27:52.097Z,100160.75
2022-08-26T16:30:20.864Z,100158.50
2022-08-26T16:32:48.787Z,100159.59
2022-08-26T16:35:16.690Z,100174.03
2022-08-26T16:37:43.422Z,100166.41
2022-08-26T16:40:10.823Z,100170.69
2022-08-26T16:42:38.093Z,100161.75
2022-08-26T16:45:06.258Z,100156.50
2022-08-26T16:47:36.786Z,100159.81
2022-08-26T16:50:06.497Z,100156.66
2022-08-26T16:52:32.985Z,100166.56
2022-08-26T16:54:59.528Z,100155.72
2022-08-26T16:57:26.045Z,100164.81
2022-08-26T16:59:52.858Z,100155.66
2022-08-26T17:02:22.249Z,100149.13
2022-08-26T17:04:50.658Z,100144.50
2022-08-26T17:07:17.121Z,100148.81
2022-08-26T17:09:43.496Z,100152.50
2022-08-26T17:12:09.841Z,100146.63
2022-08-26T17:14:36.208Z,100144.56
2022-08-26T17:17:03.135Z,100143.00
2022-08-26T17:19:29.552Z,100142.16
2022-08-26T17:22:02.791Z,100145.13
2022-08-26T17:24:33.639Z,100152.31
2022-08-26T17:27:00.696Z,100160.47
2022-08-26T17:29:27.388Z,100161.03
2022-08-26T17:31:53.813Z,100159.03
2022-08-26T17:34:21.324Z,100174.44
2022-08-26T17:36:47.746Z,100170.16
2022-08-26T17:39:14.187Z,100183.19
2022-08-26T17:41:40.991Z,100189.47
2022-08-26T17:44:07.634Z,100182.81
2022-08-26T17:46:38.127Z,100177.31
2022-08-26T17:49:05.515Z,100177.25
2022-08-26T17:51:31.947Z,100186.41
2022-08-26T17:53:58.296Z,100195.13
2022-08-26T17:56:27.184Z,100198.75
2022-08-26T17:58:55.541Z,100192.91
2022-08-26T18:01:26.196Z,100193.25
2022-08-26T18:03:57.852Z,100196.63
2022-08-26T18:06:26.146Z,100196.34
2022-08-26T18:08:52.622Z,100201.16
2022-08-26T18:11:22.879Z,100194.09
2022-08-26T18:13:49.262Z,100200.66
2022-08-26T18:16:17.699Z,100200.06
2022-08-26T18:18:44.797Z,100201.72
2022-08-26T18:21:16.882Z,100199.69
2022-08-26T18:23:44.653Z,100193.63
2022-08-26T18:26:17.348Z,100199.25
2022-08-26T18:28:43.779Z,100199.50
2022-08-26T18:31:11.557Z,100200.44
2022-08-26T18:33:38.799Z,100195.88
2022-08-26T18:36:05.270Z,100202.44
2022-08-26T18:38:31.711Z,100203.63
2022-08-26T18:40:59.247Z,100211.50
2022-08-26T18:43:25.619Z,100212.06
2022-08-26T18:46:02.116Z,100201.34
2022-08-26T18:48:28.498Z,100206.91
2022-08-26T18:50:55.354Z,100211.19
2022-08-26T18:53:21.813Z,100204.03
2022-08-26T18:55:48.187Z,100204.28
2022-08-26T18:58:16.275Z,100208.34
2022-08-26T19:00:42.692Z,100207.22
2022-08-26T19:03:18.472Z,100212.84
2022-08-26T19:05:45.755Z,100218.22
2022-08-26T19:08:12.295Z,100227.25
2022-08-26T19:10:39.769Z,100227.28
2022-08-26T19:13:09.192Z,100241.06
2022-08-26T19:15:41.285Z,100245.59
2022-08-26T19:18:09.066Z,100243.41
2022-08-26T19:20:46.524Z,100254.31
2022-08-26T19:23:30.987Z,100250.38
2022-08-26T19:25:58.506Z,100258.53
2022-08-26T19:28:24.839Z,100260.59
2022-08-26T19:30:53.181Z,100261.50
2022-08-26T19:33:19.956Z,100270.50
2022-08-26T19:35:46.427Z,100269.13
2022-08-26T19:38:13.471Z,100270.19
2022-08-26T19:40:40.419Z,100280.69
2022-08-26T19:43:07.280Z,100284.88
2022-08-26T19:45:34.303Z,100283.63
2022-08-26T19:48:00.982Z,100280.47
2022-08-26T19:50:29.071Z,100294.94
2022-08-26T19:52:55.503Z,100284.06
2022-08-26T19:55:22.936Z,100275.22
2022-08-26T19:57:52.187Z,100287.88
2022-08-26T20:00:21.791Z,100282.03
2022-08-26T20:02:48.611Z,100285.28
2022-08-26T20:05:16.945Z,100286.19
2022-08-26T20:07:43.720Z,100272.50
2022-08-26T20:10:13.443Z,100284.94
2022-08-26T20:12:41.629Z,100284.19
2022-08-26T20:15:12.649Z,100279.91
2022-08-26T20:17:40.306Z,100284.94
2022-08-26T20:20:33.421Z,100286.44
2022-08-26T20:23:02.328Z,100288.34
2022-08-26T20:25:28.882Z,100276.28
2022-08-26T20:27:55.251Z,100282.06
2022-08-26T20:30:21.781Z,100277.13
2022-08-26T20:32:48.359Z,100276.72
2022-08-26T20:35:15.303Z,100281.66
2022-08-26T20:37:41.681Z,100286.59
2022-08-26T20:40:10.270Z,100286.66
2022-08-26T20:42:37.543Z,100283.88
2022-08-26T20:45:06.957Z,100282.38
2022-08-26T20:47:33.906Z,100277.19
2022-08-26T20:50:00.281Z,100298.50
2022-08-26T20:52:26.681Z,100288.28
2022-08-26T20:54:53.099Z,100292.25
2022-08-26T20:57:19.488Z,100295.59
2022-08-26T20:59:45.866Z,100295.13
2022-08-26T21:02:12.335Z,100298.50
2022-08-26T21:04:38.786Z,100287.69
2022-08-26T21:07:05.157Z,100289.72
2022-08-26T21:09:32.481Z,100291.91
2022-08-26T21:11:59.084Z,100298.78
2022-08-26T21:14:26.129Z,100286.03
2022-08-26T21:16:53.119Z,100288.19
2022-08-26T21:19:19.585Z,100291.00
2022-08-26T21:21:48.107Z,100293.13
2022-08-26T21:24:14.899Z,100294.44
2022-08-26T21:26:41.680Z,100284.13
2022-08-26T21:29:09.601Z,100287.03
2022-08-26T21:31:40.018Z,100286.56
2022-08-26T21:34:08.855Z,100286.19
2022-08-26T21:36:35.232Z,100286.56
2022-08-26T21:39:01.680Z,100293.94
2022-08-26T21:41:28.610Z,100299.69
2022-08-26T21:43:58.983Z,100290.44
2022-08-26T21:46:28.288Z,100297.84
2022-08-26T21:49:02.308Z,100292.88
2022-08-26T21:51:34.134Z,100303.78
2022-08-26T21:54:01.941Z,100312.78
2022-08-26T21:56:31.446Z,100314.50
2022-08-26T21:58:59.596Z,100321.44
2022-08-26T22:01:29.362Z,100326.22
2022-08-26T22:03:56.100Z,100314.63
2022-08-26T22:06:24.135Z,100315.84
2022-08-26T22:08:51.491Z,100337.84
2022-08-26T22:11:18.956Z,100336.66
2022-08-26T22:13:46.249Z,100337.31
2022-08-26T22:16:13.777Z,100335.69
2022-08-26T22:18:43.691Z,100329.47
2022-08-26T22:21:13.459Z,100330.22
2022-08-26T22:23:40.075Z,100330.69
2022-08-26T22:26:08.579Z,100341.94
2022-08-26T22:28:35.940Z,100339.88
2022-08-26T22:31:02.393Z,100340.28
2022-08-26T22:33:28.943Z,100328.66
2022-08-26T22:35:55.614Z,100323.63
2022-08-26T22:38:23.850Z,100334.94
2022-08-26T22:40:56.412Z,100322.97
2022-08-26T22:43:24.847Z,100334.13
2022-08-26T22:45:52.786Z,100323.91
2022-08-26T22:48:22.423Z,100332.97
2022-08-26T22:50:49.677Z,100336.53
2022-08-26T22:53:17.568Z,100342.81
2022-08-26T22:55:44.620Z,100334.41
2022-08-26T22:58:13.227Z,100332.34
2022-08-26T23:00:40.820Z,100334.06
2022-08-26T23:03:07.768Z,100337.66
2022-08-26T23:05:34.584Z,100338.69
2022-08-26T23:08:01.781Z,100343.53
2022-08-26T23:10:28.228Z,100336.59
2022-08-26T23:12:54.635Z,100339.53
2022-08-26T23:15:21.230Z,100343.53
2022-08-26T23:17:48.394Z,100346.53
2022-08-26T23:20:26.211Z,100348.75
2022-08-26T23:22:53.366Z,100345.19
2022-08-26T23:25:20.304Z,100347.28
2022-08-26T23:27:46.984Z,100335.72
2022-08-26T23:30:18.033Z,100344.28
2022-08-26T23:32:45.001Z,100330.44
2022-08-26T23:35:12.756Z,100334.25
2022-08-26T23:37:44.032Z,100339.50
2022-08-26T23:40:32.479Z,100331.06
2022-08-26T23:43:01.221Z,100333.41
2022-08-26T23:45:27.828Z,100339.97
2022-08-26T23:47:54.959Z,100337.84
2022-08-26T23:50:23.719Z,100340.41
2022-08-26T23:53:08.697Z,100335.00
2022-08-26T23:55:39.012Z,100335.19
2022-08-26T23:58:06.367Z,100328.88
